Time;durP1;ratioP1;P1;durP2;ratioP2;P2;SDS_P1;SDS_P2;PMS_P1;PMS_P2;Temp;Humidity;BMP_temperature;BMP_pressure;BME280_temperature;BME280_humidity;BME280_pressure;Samples;Min_cycle;Max_cycle;Signal;HPM_P1;HPM_P2
2022/01/08 00:01:47;;;;;;;2.45;0.77;;;23.60;51.50;;;;;;5068713;28;20325;-46
2022/01/08 00:04:17;;;;;;;4.25;1.30;;;23.70;51.60;;;;;;5065711;28;20286;-44
2022/01/08 00:06:47;;;;;;;2.30;1.00;;;23.70;51.60;;;;;;5069621;28;20286;-45
2022/01/08 00:09:18;;;;;;;1.98;0.90;;;23.70;51.60;;;;;;5068029;28;20245;-51
2022/01/08 00:11:50;;;;;;;2.30;0.70;;;23.70;51.50;;;;;;5067513;28;20285;-46
2022/01/08 00:14:22;;;;;;;3.08;0.88;;;23.80;51.50;;;;;;5065850;28;20289;-47
2022/01/08 00:16:53;;;;;;;3.58;1.00;;;23.80;51.50;;;;;;5063687;28;20203;-39
2022/01/08 00:19:23;;;;;;;2.83;1.05;;;23.80;51.50;;;;;;5067121;28;20203;-42
2022/01/08 00:21:54;;;;;;;2.15;1.00;;;23.80;51.40;;;;;;5066397;28;20731;-43
2022/01/08 00:24:24;;;;;;;1.92;1.00;;;23.80;51.50;;;;;;5067125;28;20198;-43
2022/01/08 00:26:57;;;;;;;3.10;1.20;;;23.90;51.50;;;;;;5066359;28;20226;-38
2022/01/08 00:29:27;;;;;;;2.63;0.85;;;23.90;51.50;;;;;;5056849;28;20306;-45
2022/01/08 00:31:58;;;;;;;1.70;0.80;;;23.90;51.50;;;;;;5067484;28;20278;-45
2022/01/08 00:34:28;;;;;;;2.85;1.10;;;24.00;51.50;;;;;;5067949;28;20990;-49
2022/01/08 00:36:58;;;;;;;2.67;1.00;;;24.00;51.40;;;;;;5066441;28;20286;-53
2022/01/08 00:39:29;;;;;;;1.60;0.80;;;24.00;51.40;;;;;;5067055;28;20294;-43
2022/01/08 00:42:01;;;;;;;2.83;0.98;;;24.00;51.40;;;;;;5065116;28;20274;-41
2022/01/08 00:44:32;;;;;;;2.83;1.30;;;24.10;51.30;;;;;;5066530;28;20305;-48
2022/01/08 00:47:02;;;;;;;2.95;1.20;;;24.10;51.30;;;;;;5058372;28;20199;-39
2022/01/08 00:49:35;;;;;;;3.00;1.27;;;24.20;51.20;;;;;;5067362;28;20301;-44
2022/01/08 00:52:06;;;;;;;2.50;1.13;;;24.20;51.20;;;;;;5067820;28;20215;-44
2022/01/08 00:54:38;;;;;;;2.03;1.00;;;24.20;51.20;;;;;;5066763;28;20222;-42
2022/01/08 00:57:11;;;;;;;2.30;1.00;;;24.20;51.20;;;;;;5066561;28;20263;-51
2022/01/08 00:59:41;;;;;;;1.77;1.15;;;24.20;51.20;;;;;;5065366;28;20288;-45
2022/01/08 01:02:12;;;;;;;2.60;1.00;;;24.30;51.40;;;;;;5066838;28;20302;-48
2022/01/08 01:04:42;;;;;;;3.22;1.27;;;24.20;51.20;;;;;;5067427;28;20282;-39
2022/01/08 01:07:13;;;;;;;2.08;1.10;;;24.30;51.80;;;;;;5067502;28;20650;-45
2022/01/08 01:09:43;;;;;;;2.78;1.20;;;24.30;51.20;;;;;;5067753;28;20302;-43
2022/01/08 01:12:15;;;;;;;2.88;1.17;;;24.30;51.10;;;;;;5065915;28;20639;-39
2022/01/08 01:14:46;;;;;;;3.78;1.27;;;24.30;51.10;;;;;;5067096;28;20245;-52
2022/01/08 01:17:16;;;;;;;3.05;1.08;;;24.40;51.10;;;;;;5063168;28;20592;-49
2022/01/08 01:19:48;;;;;;;3.20;1.20;;;24.30;51.20;;;;;;5067049;28;20663;-47
2022/01/08 01:22:22;;;;;;;3.30;1.13;;;24.40;51.50;;;;;;5067441;28;20219;-46
2022/01/08 01:25:00;;;;;;;3.35;1.52;;;24.40;51.60;;;;;;5065287;28;20207;-50
2022/01/08 01:30:28;;;;;;;9.07;4.03;;;24.40;51.90;;;;;;5066372;28;20237;-48
2022/01/08 01:41:30;;;;;;;4.80;1.80;;;24.50;52.10;;;;;;5065873;28;20675;-44
2022/01/08 01:47:04;;;;;;;7.53;2.42;;;24.50;52.40;;;;;;5066392;28;20214;-44
2022/01/08 01:49:36;;;;;;;6.53;1.88;;;24.50;52.50;;;;;;5056351;28;20211;-49
2022/01/08 01:52:09;;;;;;;4.20;1.67;;;24.50;52.60;;;;;;5066607;28;20247;-46
2022/01/08 01:54:39;;;;;;;3.45;1.77;;;24.60;52.80;;;;;;5067183;28;20568;-56
2022/01/08 01:57:12;;;;;;;4.32;1.40;;;24.60;52.80;;;;;;5066313;28;20278;-47
2022/01/08 01:59:45;;;;;;;4.10;1.67;;;24.60;52.80;;;;;;5066549;28;20217;-40
2022/01/08 02:02:15;;;;;;;5.80;1.45;;;24.60;52.80;;;;;;5066060;28;20215;-43
2022/01/08 02:04:46;;;;;;;4.43;1.25;;;24.60;52.60;;;;;;5067163;28;20281;-50
2022/01/08 02:07:16;;;;;;;4.40;1.30;;;24.70;52.60;;;;;;5064110;28;20283;-56
2022/01/08 02:12:35;;;;;;;4.70;1.67;;;24.70;52.50;;;;;;5054395;28;20316;-41
2022/01/08 02:15:08;;;;;;;4.90;1.38;;;24.70;52.40;;;;;;5066808;28;20212;-45
2022/01/08 02:17:39;;;;;;;5.72;1.50;;;24.70;52.50;;;;;;5066134;28;20217;-39
2022/01/08 02:20:13;;;;;;;4.95;1.50;;;24.70;52.40;;;;;;5060811;28;20206;-39
2022/01/08 02:22:44;;;;;;;4.32;1.25;;;24.70;52.30;;;;;;5065946;28;20210;-38
2022/01/08 02:25:14;;;;;;;4.10;1.65;;;24.80;52.30;;;;;;5065031;28;20203;-38
2022/01/08 02:27:45;;;;;;;4.45;1.58;;;24.80;52.20;;;;;;5065295;28;20278;-39
2022/01/08 02:30:15;;;;;;;4.10;1.02;;;24.80;52.20;;;;;;5056236;28;20311;-38
2022/01/08 02:32:47;;;;;;;3.90;1.25;;;24.90;52.10;;;;;;5062943;28;20246;-39
2022/01/08 02:35:21;;;;;;;3.88;1.27;;;24.90;52.10;;;;;;5066085;28;20289;-39
2022/01/08 02:37:52;;;;;;;4.03;1.48;;;24.90;52.70;;;;;;5065876;28;20325;-40
2022/01/08 02:40:23;;;;;;;3.80;1.27;;;24.90;52.00;;;;;;5065604;28;20241;-38
2022/01/08 02:43:01;;;;;;;5.07;1.42;;;24.90;51.80;;;;;;5059212;28;20219;-38
2022/01/08 02:45:33;;;;;;;1.85;1.00;;;25.00;51.80;;;;;;5069334;28;20191;-43
2022/01/08 02:48:03;;;;;;;3.75;1.35;;;25.00;51.80;;;;;;5070370;28;20285;-38
2022/01/08 02:50:36;;;;;;;3.17;1.20;;;25.00;51.80;;;;;;5069489;28;20562;-39
2022/01/08 02:53:06;;;;;;;1.85;1.00;;;25.00;51.70;;;;;;5068987;28;20218;-38
2022/01/08 02:55:37;;;;;;;2.97;1.20;;;25.10;51.70;;;;;;5067925;28;20633;-39
2022/01/08 02:58:08;;;;;;;3.95;1.45;;;25.10;51.70;;;;;;5065928;28;20206;-43
2022/01/08 03:00:38;;;;;;;2.97;1.10;;;25.10;51.70;;;;;;5067554;28;20226;-49
2022/01/08 03:03:09;;;;;;;4.05;1.23;;;25.20;51.70;;;;;;5067862;28;20337;-38
2022/01/08 03:05:41;;;;;;;2.10;1.30;;;25.20;51.70;;;;;;5070351;28;20199;-38
2022/01/08 03:08:12;;;;;;;4.97;1.20;;;25.20;51.60;;;;;;5069612;28;20195;-40
2022/01/08 03:10:42;;;;;;;3.58;1.50;;;25.30;51.60;;;;;;5069566;28;20301;-38
2022/01/08 03:13:13;;;;;;;4.68;1.35;;;25.30;51.60;;;;;;5069220;28;20246;-38
2022/01/08 03:15:43;;;;;;;3.47;1.40;;;25.30;51.60;;;;;;5068645;28;20277;-39
2022/01/08 03:18:14;;;;;;;3.90;1.42;;;25.30;51.60;;;;;;5068344;28;20285;-42
2022/01/08 03:20:59;;;;;;;2.85;1.25;;;25.30;51.50;;;;;;5068083;28;20217;-42
2022/01/08 03:23:37;;;;;;;3.35;1.30;;;25.40;51.60;;;;;;5068849;28;20222;-48
2022/01/08 03:26:08;;;;;;;3.92;1.33;;;25.40;51.50;;;;;;5066584;28;20194;-44
2022/01/08 03:28:47;;;;;;;6.05;1.20;;;25.50;51.50;;;;;;5068690;28;20278;-46
2022/01/08 03:31:19;;;;;;;3.03;1.10;;;25.50;51.50;;;;;;5069388;28;20306;-44
2022/01/08 03:33:50;;;;;;;2.97;1.48;;;25.50;51.50;;;;;;5072107;28;20297;-39
2022/01/08 03:36:23;;;;;;;3.83;1.23;;;25.50;51.40;;;;;;5071304;28;20293;-41
2022/01/08 03:38:55;;;;;;;4.22;1.50;;;25.50;51.40;;;;;;5067755;28;20310;-47
2022/01/08 03:41:25;;;;;;;4.63;1.40;;;25.50;51.40;;;;;;5067584;28;20198;-39
2022/01/08 03:43:56;;;;;;;5.00;1.70;;;25.60;51.50;;;;;;5060776;28;20306;-48
2022/01/08 03:46:28;;;;;;;6.15;1.63;;;25.60;51.50;;;;;;5054665;28;20274;-44
2022/01/08 03:49:22;;;;;;;3.05;1.65;;;25.70;51.50;;;;;;5055030;28;20204;-39
2022/01/08 03:51:55;;;;;;;2.75;1.42;;;25.70;51.50;;;;;;5056128;28;20218;-44
2022/01/08 03:54:26;;;;;;;4.57;1.50;;;25.70;51.30;;;;;;5067500;28;20286;-41
2022/01/08 03:56:57;;;;;;;3.60;1.42;;;25.80;51.40;;;;;;5052919;28;20234;-42
2022/01/08 03:59:27;;;;;;;4.82;1.60;;;25.80;51.30;;;;;;5050640;28;20718;-41
2022/01/08 04:01:57;;;;;;;3.72;1.60;;;25.80;51.20;;;;;;5054048;28;20206;-42
2022/01/08 04:04:28;;;;;;;6.28;1.40;;;25.80;51.20;;;;;;5055332;28;20238;-49
2022/01/08 04:07:00;;;;;;;4.45;1.80;;;25.80;51.80;;;;;;5060280;28;20282;-48
2022/01/08 04:09:31;;;;;;;3.70;1.35;;;25.90;51.20;;;;;;5054606;28;20292;-42
2022/01/08 04:12:04;;;;;;;5.90;1.60;;;25.90;51.10;;;;;;5065007;28;20786;-49
2022/01/08 04:14:47;;;;;;;4.82;1.27;;;26.00;51.20;;;;;;5068947;28;20288;-44
2022/01/08 04:17:18;;;;;;;4.28;1.75;;;26.00;51.10;;;;;;5066038;28;20198;-49
2022/01/08 04:19:48;;;;;;;5.50;1.50;;;26.00;51.10;;;;;;5052400;28;20282;-40
2022/01/08 04:22:21;;;;;;;3.72;1.40;;;26.10;51.10;;;;;;5053677;28;20308;-46
2022/01/08 04:24:51;;;;;;;3.03;1.25;;;26.10;51.10;;;;;;5068834;28;20226;-46
2022/01/08 04:27:22;;;;;;;4.63;1.50;;;26.10;51.00;;;;;;5052743;28;20199;-44
2022/01/08 04:29:52;;;;;;;4.80;1.50;;;26.10;51.00;;;;;;5054995;28;20286;-39
2022/01/08 04:32:23;;;;;;;4.05;1.60;;;26.20;51.00;;;;;;5062188;28;20302;-45
2022/01/08 04:34:53;;;;;;;3.63;1.83;;;26.20;50.90;;;;;;5066849;28;20281;-45
2022/01/08 04:37:25;;;;;;;3.08;1.45;;;26.20;50.80;;;;;;5066672;28;20286;-41
2022/01/08 04:39:56;;;;;;;4.30;1.45;;;26.30;50.80;;;;;;5066298;28;20290;-52
2022/01/08 04:42:27;;;;;;;4.90;2.00;;;26.30;50.70;;;;;;5068675;28;20257;-46
2022/01/08 04:44:57;;;;;;;4.55;1.67;;;26.30;50.70;;;;;;5068130;28;20322;-44
2022/01/08 04:47:27;;;;;;;3.92;1.60;;;26.40;50.80;;;;;;5069107;28;20274;-44
2022/01/08 04:49:58;;;;;;;4.93;1.67;;;26.40;50.70;;;;;;5053890;28;20286;-39
2022/01/08 04:52:30;;;;;;;4.95;2.03;;;26.40;50.60;;;;;;5063855;28;20314;-43
2022/01/08 04:55:01;;;;;;;3.50;1.60;;;26.40;50.50;;;;;;5055280;28;20675;-47
2022/01/08 04:57:31;;;;;;;3.85;1.58;;;26.40;50.50;;;;;;5059036;28;20285;-46
2022/01/08 05:00:02;;;;;;;6.45;1.75;;;26.40;50.40;;;;;;5066878;28;20294;-47
2022/01/08 05:02:32;;;;;;;3.63;1.55;;;26.50;50.50;;;;;;5065965;28;20306;-38
2022/01/08 05:05:02;;;;;;;3.67;1.77;;;26.50;50.50;;;;;;5052899;28;20285;-44
2022/01/08 05:07:35;;;;;;;3.47;1.73;;;26.50;50.50;;;;;;5050401;28;20707;-42
2022/01/08 05:10:06;;;;;;;4.60;1.33;;;26.50;50.50;;;;;;5053033;28;20699;-39
2022/01/08 05:12:37;;;;;;;3.22;1.50;;;26.50;50.40;;;;;;5052815;28;20314;-42
2022/01/08 05:15:08;;;;;;;4.70;1.60;;;26.50;50.40;;;;;;5053435;28;20218;-46
2022/01/08 05:17:39;;;;;;;3.28;1.60;;;26.60;50.50;;;;;;5054945;28;20285;-39
2022/01/08 05:20:11;;;;;;;3.45;1.60;;;26.60;50.30;;;;;;5055531;28;20237;-43
2022/01/08 05:22:52;;;;;;;5.93;1.83;;;26.60;50.30;;;;;;5059358;28;20219;-41
2022/01/08 05:25:23;;;;;;;3.20;1.50;;;26.60;50.30;;;;;;5053391;28;20643;-45
2022/01/08 05:27:54;;;;;;;3.55;1.55;;;26.60;50.20;;;;;;5052770;28;20518;-38
2022/01/08 05:30:26;;;;;;;4.38;1.45;;;26.60;50.20;;;;;;5067088;28;20628;-42
2022/01/08 05:32:57;;;;;;;5.03;1.60;;;26.60;50.20;;;;;;5048691;28;20315;-45
2022/01/08 05:35:29;;;;;;;5.32;1.60;;;26.60;50.20;;;;;;5067399;28;20722;-44
2022/01/08 05:38:01;;;;;;;5.68;1.88;;;26.60;50.20;;;;;;5052998;28;20290;-39
2022/01/08 05:40:31;;;;;;;4.28;1.50;;;26.60;50.30;;;;;;5052688;28;20203;-41
2022/01/08 05:43:02;;;;;;;3.30;1.45;;;26.60;50.20;;;;;;5052590;28;20302;-39
2022/01/08 05:45:32;;;;;;;2.78;1.58;;;26.60;50.20;;;;;;5057691;28;20227;-41
2022/01/08 05:48:04;;;;;;;3.67;1.70;;;26.60;50.20;;;;;;5065153;28;20274;-43
2022/01/08 05:50:34;;;;;;;4.25;1.70;;;26.60;50.20;;;;;;5065459;28;20210;-39
2022/01/08 05:53:06;;;;;;;4.20;1.70;;;26.60;50.30;;;;;;5052021;28;20290;-47
2022/01/08 05:55:37;;;;;;;4.07;1.60;;;26.60;50.20;;;;;;5048748;28;20286;-43
2022/01/08 05:58:07;;;;;;;3.53;1.65;;;26.60;50.30;;;;;;5052079;28;20621;-50
2022/01/08 06:00:38;;;;;;;4.47;1.63;;;26.50;50.20;;;;;;5053011;28;20588;-52
2022/01/08 06:03:09;;;;;;;3.03;1.38;;;26.50;50.20;;;;;;5051812;28;20310;-47
2022/01/08 06:05:39;;;;;;;5.10;1.73;;;26.60;50.30;;;;;;5060589;28;20195;-43
2022/01/08 06:08:12;;;;;;;4.22;1.92;;;26.50;50.20;;;;;;5059969;28;20642;-46
2022/01/08 06:10:42;;;;;;;4.22;1.77;;;26.60;50.30;;;;;;5052745;28;20286;-49
2022/01/08 06:13:13;;;;;;;4.13;1.67;;;26.50;50.30;;;;;;5052792;28;20230;-49
2022/01/08 06:15:43;;;;;;;3.00;1.50;;;26.60;50.30;;;;;;5054065;28;20237;-48
2022/01/08 06:18:14;;;;;;;4.45;1.50;;;26.60;50.30;;;;;;5066765;28;20709;-42
2022/01/08 06:20:45;;;;;;;4.63;1.98;;;26.60;50.30;;;;;;5055362;28;20203;-41
2022/01/08 06:23:17;;;;;;;3.00;1.58;;;26.50;50.30;;;;;;5070752;28;20301;-42
2022/01/08 06:25:47;;;;;;;5.35;1.70;;;26.60;50.40;;;;;;5070773;28;20867;-43
2022/01/08 06:28:18;;;;;;;7.15;2.10;;;26.60;50.40;;;;;;5068860;28;20227;-45
2022/01/08 06:30:49;;;;;;;4.32;1.58;;;26.60;50.40;;;;;;5067552;28;20282;-52
2022/01/08 06:33:19;;;;;;;4.53;1.80;;;26.60;50.50;;;;;;5056701;28;20252;-44
2022/01/08 06:35:51;;;;;;;6.57;1.80;;;26.60;50.50;;;;;;5067759;28;20199;-45
2022/01/08 06:38:23;;;;;;;3.63;1.40;;;26.60;50.50;;;;;;5070684;28;20196;-39
2022/01/08 06:40:54;;;;;;;2.95;1.77;;;26.60;50.50;;;;;;5053494;28;20291;-46
2022/01/08 06:43:24;;;;;;;2.88;1.60;;;26.50;50.30;;;;;;5070289;28;20293;-43
2022/01/08 06:45:55;;;;;;;3.15;1.50;;;26.60;50.40;;;;;;5057116;28;20287;-48
2022/01/08 06:48:25;;;;;;;3.08;1.30;;;26.60;50.50;;;;;;5064037;28;20201;-48
2022/01/08 06:50:56;;;;;;;3.10;1.40;;;26.60;50.50;;;;;;5066589;28;20286;-46
2022/01/08 06:53:28;;;;;;;5.47;1.85;;;26.60;50.50;;;;;;5058466;28;20293;-52
2022/01/08 06:55:59;;;;;;;2.38;1.58;;;26.60;50.40;;;;;;5067667;28;21045;-43
2022/01/08 06:58:29;;;;;;;4.05;1.65;;;26.60;50.40;;;;;;5064193;28;20290;-40
2022/01/08 07:00:59;;;;;;;3.50;1.73;;;26.60;50.40;;;;;;5054975;28;20205;-44
2022/01/08 07:03:30;;;;;;;3.50;1.48;;;26.60;50.40;;;;;;5070764;28;20313;-53
2022/01/08 07:06:00;;;;;;;4.65;1.52;;;26.60;50.40;;;;;;5070548;28;20314;-39
2022/01/08 07:08:33;;;;;;;3.80;1.60;;;26.60;50.30;;;;;;5056996;28;20291;-40
2022/01/08 07:11:03;;;;;;;4.20;1.92;;;26.60;50.40;;;;;;5065320;28;20294;-52
2022/01/08 07:13:34;;;;;;;3.53;1.58;;;26.60;50.50;;;;;;5067059;28;20293;-45
2022/01/08 07:16:04;;;;;;;3.65;1.45;;;26.60;50.30;;;;;;5068436;28;20285;-48
2022/01/08 07:18:35;;;;;;;3.55;1.58;;;26.60;50.30;;;;;;5069157;28;20282;-44
2022/01/08 07:21:05;;;;;;;5.20;1.30;;;26.60;50.30;;;;;;5069495;28;20631;-48
2022/01/08 07:23:37;;;;;;;4.50;1.40;;;26.50;50.20;;;;;;5069388;28;20246;-43
2022/01/08 07:26:09;;;;;;;3.95;1.42;;;26.60;50.30;;;;;;5053352;28;20282;-39
2022/01/08 07:28:40;;;;;;;5.03;1.33;;;26.60;50.30;;;;;;5064751;28;20195;-42
2022/01/08 07:31:10;;;;;;;3.95;1.60;;;26.50;50.20;;;;;;5055934;28;20207;-45
2022/01/08 07:33:41;;;;;;;2.85;1.42;;;26.60;50.20;;;;;;5054819;28;20652;-43
2022/01/08 07:36:11;;;;;;;3.00;1.58;;;26.60;50.20;;;;;;5054874;28;20302;-44
2022/01/08 07:38:44;;;;;;;3.40;1.52;;;26.60;50.20;;;;;;5058395;28;20286;-45
2022/01/08 07:41:19;;;;;;;4.18;1.48;;;26.60;50.20;;;;;;5068039;28;20238;-50
2022/01/08 07:43:49;;;;;;;5.05;1.38;;;26.60;50.30;;;;;;5069008;28;20709;-41
2022/01/08 07:46:20;;;;;;;3.55;1.60;;;26.60;50.30;;;;;;5053168;28;20262;-39
2022/01/08 07:48:50;;;;;;;2.58;1.55;;;26.50;50.20;;;;;;5069369;28;20227;-42
2022/01/08 07:51:21;;;;;;;3.13;1.17;;;26.50;50.20;;;;;;5063520;28;20366;-46
2022/01/08 07:53:53;;;;;;;3.95;1.65;;;26.50;50.30;;;;;;5054178;28;20258;-46
2022/01/08 07:56:23;;;;;;;3.00;1.35;;;26.50;50.20;;;;;;5054807;28;20227;-47
2022/01/08 07:58:54;;;;;;;2.97;1.58;;;26.50;50.20;;;;;;5059643;28;20374;-47
2022/01/08 08:01:24;;;;;;;2.60;1.45;;;26.50;50.20;;;;;;5055619;28;20223;-41
2022/01/08 08:03:55;;;;;;;2.70;1.38;;;26.50;50.80;;;;;;5055594;28;20632;-41
2022/01/08 08:06:26;;;;;;;2.95;1.30;;;26.50;50.10;;;;;;5069443;28;20207;-44
2022/01/08 08:08:58;;;;;;;3.03;1.13;;;26.50;50.10;;;;;;5067688;28;20219;-45
2022/01/08 08:18:13;;;;;;;2.28;1.10;;;26.40;50.00;;;;;;5057953;28;20260;-52
2022/01/08 08:20:44;;;;;;;2.13;1.10;;;26.40;50.00;;;;;;5067770;28;20199;-43
2022/01/08 08:23:15;;;;;;;3.08;1.40;;;26.40;50.10;;;;;;5052595;28;20309;-46
2022/01/08 08:25:47;;;;;;;2.33;1.45;;;26.30;50.00;;;;;;5051641;28;20283;-49
2022/01/08 08:28:18;;;;;;;3.13;1.50;;;26.30;50.10;;;;;;5063629;28;20290;-48
2022/01/08 08:30:48;;;;;;;3.65;1.48;;;26.30;50.20;;;;;;5067210;28;20285;-39
2022/01/08 08:33:19;;;;;;;3.17;1.45;;;26.30;50.80;;;;;;5067290;28;20684;-39
2022/01/08 08:35:49;;;;;;;3.28;1.38;;;26.20;50.20;;;;;;5066374;28;20633;-40
2022/01/08 08:38:19;;;;;;;2.58;1.38;;;26.20;50.20;;;;;;5062413;28;20192;-46
2022/01/08 08:40:52;;;;;;;2.63;1.13;;;26.20;50.20;;;;;;5055594;28;20242;-43
2022/01/08 08:43:22;;;;;;;2.38;1.10;;;26.20;50.20;;;;;;5067313;28;20250;-39
2022/01/08 08:45:53;;;;;;;3.15;1.60;;;26.20;50.20;;;;;;5068337;28;20245;-41
2022/01/08 08:48:24;;;;;;;1.85;1.27;;;26.10;50.20;;;;;;5068547;28;20625;-44
2022/01/08 08:50:55;;;;;;;2.17;1.23;;;26.10;50.20;;;;;;5054262;28;20274;-43
2022/01/08 08:53:26;;;;;;;2.83;1.33;;;26.10;50.20;;;;;;5058110;28;20229;-42
2022/01/08 08:55:58;;;;;;;1.90;1.15;;;26.10;50.10;;;;;;5063275;28;20294;-40
2022/01/08 08:58:28;;;;;;;2.92;1.42;;;26.10;50.10;;;;;;5066113;28;20735;-39
2022/01/08 09:00:59;;;;;;;2.10;1.23;;;26.10;50.20;;;;;;5062347;28;20740;-39
2022/01/08 09:03:29;;;;;;;1.58;1.20;;;26.00;50.10;;;;;;5053382;28;20250;-43
2022/01/08 09:06:00;;;;;;;3.40;1.27;;;26.00;50.20;;;;;;5053343;28;20245;-43
2022/01/08 09:08:30;;;;;;;4.05;1.50;;;26.00;50.20;;;;;;5051682;28;20283;-53
2022/01/08 09:11:03;;;;;;;2.33;1.20;;;25.90;50.10;;;;;;5059946;28;20671;-46
2022/01/08 09:13:33;;;;;;;2.15;1.27;;;25.90;50.20;;;;;;5068198;28;20313;-43
2022/01/08 09:16:04;;;;;;;2.20;1.15;;;25.90;50.20;;;;;;5055546;28;20290;-42
2022/01/08 09:18:34;;;;;;;2.75;1.33;;;25.80;50.20;;;;;;5053052;28;20237;-46
2022/01/08 09:21:05;;;;;;;2.55;1.50;;;25.90;50.30;;;;;;5056433;28;20286;-46
2022/01/08 09:23:37;;;;;;;3.15;1.38;;;25.80;50.80;;;;;;5065502;28;20310;-45
2022/01/08 09:26:10;;;;;;;2.72;1.45;;;25.80;50.20;;;;;;5066398;28;20221;-41
2022/01/08 09:28:41;;;;;;;1.50;1.10;;;25.80;50.30;;;;;;5053290;28;20237;-49
2022/01/08 09:31:11;;;;;;;2.15;1.20;;;25.70;50.30;;;;;;5050933;28;20286;-43
2022/01/08 09:33:42;;;;;;;2.63;1.30;;;25.70;50.30;;;;;;5068609;28;20258;-46
2022/01/08 09:36:13;;;;;;;1.85;1.17;;;25.70;50.30;;;;;;5052407;28;20242;-40
2022/01/08 09:38:43;;;;;;;2.05;1.30;;;25.70;50.30;;;;;;5064193;28;20290;-46
2022/01/08 09:41:15;;;;;;;2.65;1.23;;;25.60;50.20;;;;;;5066576;28;20282;-43
2022/01/08 09:43:46;;;;;;;2.97;1.20;;;25.60;50.20;;;;;;5058301;28;20310;-42
2022/01/08 09:46:16;;;;;;;2.42;1.17;;;25.60;50.30;;;;;;5053236;28;20298;-46
2022/01/08 09:48:47;;;;;;;1.90;1.30;;;25.50;50.20;;;;;;5054389;28;20277;-39
2022/01/08 09:51:18;;;;;;;3.42;1.50;;;25.50;50.30;;;;;;5065326;28;20282;-44
2022/01/08 09:53:48;;;;;;;1.20;0.98;;;25.50;50.30;;;;;;5066498;28;20634;-45
2022/01/08 09:56:21;;;;;;;2.05;1.20;;;25.40;50.30;;;;;;5057766;28;20209;-38
2022/01/08 09:58:51;;;;;;;1.75;1.10;;;25.40;50.30;;;;;;5057160;28;20290;-42
2022/01/08 10:01:30;;;;;;;3.03;1.30;;;25.40;50.30;;;;;;5058651;28;20210;-48
2022/01/08 10:04:01;;;;;;;2.03;1.13;;;25.30;50.30;;;;;;5059456;28;20823;-51
2022/01/08 10:06:33;;;;;;;2.60;1.20;;;25.30;50.30;;;;;;5064584;28;20621;-41
2022/01/08 10:09:04;;;;;;;1.55;1.10;;;25.30;50.30;;;;;;5071050;28;20754;-39
2022/01/08 10:11:37;;;;;;;2.10;1.50;;;25.30;50.40;;;;;;5067132;28;20203;-45
2022/01/08 10:14:15;;;;;;;2.00;1.10;;;25.30;50.40;;;;;;5057856;28;20696;-48
2022/01/08 10:19:34;;;;;;;2.05;1.40;;;25.20;50.40;;;;;;5072074;28;20213;-42
2022/01/08 10:22:15;;;;;;;2.15;1.48;;;25.20;50.30;;;;;;5062242;28;20626;-40
2022/01/08 10:24:46;;;;;;;2.17;1.33;;;25.20;50.30;;;;;;5071080;28;20237;-44
2022/01/08 10:27:18;;;;;;;1.73;1.10;;;25.10;50.30;;;;;;5055455;28;20286;-46
2022/01/08 10:29:57;;;;;;;2.72;1.23;;;25.10;50.30;;;;;;5056348;28;20294;-46
2022/01/08 10:32:30;;;;;;;1.83;1.27;;;25.10;50.40;;;;;;5056247;28;20648;-47
2022/01/08 10:35:00;;;;;;;3.83;1.50;;;25.00;51.00;;;;;;5064390;28;20282;-44
2022/01/08 10:37:31;;;;;;;3.10;1.60;;;25.00;50.40;;;;;;5069357;28;20289;-50
2022/01/08 10:40:01;;;;;;;8.00;1.95;;;25.00;50.50;;;;;;5066808;28;20250;-41
2022/01/08 10:42:41;;;;;;;6.47;1.80;;;24.90;50.60;;;;;;5063244;28;20310;-39
2022/01/08 10:45:21;;;;;;;4.25;1.45;;;24.90;50.60;;;;;;5069773;28;20608;-40
2022/01/08 10:48:07;;;;;;;3.22;1.50;;;24.90;50.60;;;;;;5068293;28;20202;-43
2022/01/08 10:50:37;;;;;;;3.53;1.35;;;24.80;50.60;;;;;;5059608;28;20282;-42
2022/01/08 10:53:07;;;;;;;4.15;1.52;;;24.80;50.60;;;;;;5068841;28;20457;-39
2022/01/08 10:55:38;;;;;;;3.47;1.35;;;24.80;50.60;;;;;;5054229;28;20286;-47
2022/01/08 10:58:10;;;;;;;4.90;1.83;;;24.80;50.60;;;;;;5069107;28;20205;-47
2022/01/08 11:00:41;;;;;;;3.42;1.58;;;24.70;50.60;;;;;;5066588;28;20259;-43
2022/01/08 11:03:11;;;;;;;2.00;1.20;;;24.70;50.50;;;;;;5068992;28;20219;-39
2022/01/08 11:06:05;;;;;;;5.13;1.60;;;24.70;50.60;;;;;;5068938;28;20303;-38
2022/01/08 11:08:35;;;;;;;2.72;1.30;;;24.70;50.60;;;;;;5069441;28;20281;-39
2022/01/08 11:11:07;;;;;;;4.13;1.20;;;24.70;50.50;;;;;;5068728;28;20196;-40
2022/01/08 11:13:40;;;;;;;2.20;1.25;;;24.60;50.50;;;;;;5069240;28;20322;-42
2022/01/08 11:16:11;;;;;;;2.95;1.30;;;24.60;50.60;;;;;;5069171;28;20203;-41
2022/01/08 11:18:42;;;;;;;3.63;1.60;;;24.60;50.60;;;;;;5068814;28;20607;-39
2022/01/08 11:21:13;;;;;;;1.90;1.20;;;24.50;50.60;;;;;;5068845;28;20290;-43
2022/01/08 11:23:43;;;;;;;2.60;1.20;;;24.50;50.60;;;;;;5067959;28;20313;-39
2022/01/08 11:26:14;;;;;;;2.65;1.38;;;24.50;50.60;;;;;;5068769;28;20258;-39
2022/01/08 11:28:51;;;;;;;3.00;1.48;;;24.50;50.70;;;;;;5068504;28;20286;-43
2022/01/08 11:31:23;;;;;;;2.35;1.20;;;24.40;50.60;;;;;;5067564;28;20198;-38
2022/01/08 11:33:59;;;;;;;3.17;1.40;;;24.40;50.60;;;;;;5067419;28;20309;-48
2022/01/08 11:36:33;;;;;;;2.65;1.40;;;24.40;50.60;;;;;;5067686;28;20281;-44
2022/01/08 11:39:03;;;;;;;2.05;1.10;;;24.30;50.60;;;;;;5068558;28;20295;-48
2022/01/08 11:41:35;;;;;;;2.47;1.30;;;24.30;50.60;;;;;;5067705;28;20226;-43
2022/01/08 11:44:08;;;;;;;4.43;1.52;;;24.30;50.60;;;;;;5068166;28;20294;-41
2022/01/08 11:46:40;;;;;;;2.97;1.40;;;24.30;50.60;;;;;;5065955;28;20226;-38
2022/01/08 11:49:11;;;;;;;2.65;1.27;;;24.30;50.60;;;;;;5069176;28;20290;-44
2022/01/08 11:51:41;;;;;;;3.17;1.33;;;24.20;50.60;;;;;;5061728;28;20651;-43
2022/01/08 11:54:11;;;;;;;3.63;1.50;;;24.20;50.70;;;;;;5063323;28;20301;-43
2022/01/08 11:56:42;;;;;;;2.70;1.30;;;24.20;50.70;;;;;;5056282;28;20231;-47
2022/01/08 11:59:18;;;;;;;4.35;1.40;;;24.20;50.70;;;;;;5059136;28;20192;-43
2022/01/08 12:02:08;;;;;;;2.90;1.23;;;24.20;50.70;;;;;;5057497;28;20259;-52
2022/01/08 12:04:40;;;;;;;2.35;1.38;;;24.10;50.70;;;;;;5055947;28;20203;-46
2022/01/08 12:07:34;;;;;;;2.45;1.10;;;24.10;50.70;;;;;;5053687;28;20187;-48
2022/01/08 12:10:13;;;;;;;1.90;1.23;;;24.10;50.70;;;;;;5068426;28;20202;-47
2022/01/08 12:12:57;;;;;;;2.10;1.30;;;24.00;51.30;;;;;;5051915;28;20272;-52
2022/01/08 12:15:50;;;;;;;2.95;1.40;;;24.00;50.70;;;;;;5068076;28;20765;-39
2022/01/08 12:18:27;;;;;;;1.38;1.02;;;24.00;50.70;;;;;;5057937;28;20206;-45
2022/01/08 12:20:58;;;;;;;2.78;1.40;;;23.90;50.70;;;;;;5053191;28;20293;-43
2022/01/08 12:23:36;;;;;;;2.63;1.30;;;23.90;50.70;;;;;;5053451;28;20231;-41
2022/01/08 12:26:09;;;;;;;2.75;0.95;;;23.90;50.70;;;;;;5067342;28;20282;-43
2022/01/08 12:28:56;;;;;;;1.98;1.20;;;23.90;50.70;;;;;;5056686;28;20629;-48
2022/01/08 12:31:42;;;;;;;2.17;1.15;;;23.90;50.70;;;;;;5054136;28;20253;-42
2022/01/08 12:34:43;;;;;;;1.55;0.98;;;23.80;50.70;;;;;;5064012;28;20226;-41
2022/01/08 12:37:14;;;;;;;2.30;1.20;;;23.80;50.70;;;;;;5068389;28;20296;-42
2022/01/08 12:39:58;;;;;;;3.17;1.20;;;23.80;50.70;;;;;;5059322;28;20242;-45
2022/01/08 12:42:40;;;;;;;2.50;1.15;;;23.80;50.80;;;;;;5053470;28;20418;-54
2022/01/08 12:45:18;;;;;;;2.08;1.10;;;23.70;50.70;;;;;;5054355;28;20286;-46
2022/01/08 12:48:09;;;;;;;1.55;1.05;;;23.70;50.70;;;;;;5058376;28;20198;-43
2022/01/08 12:50:41;;;;;;;2.03;1.13;;;23.70;50.80;;;;;;5061448;28;20191;-42
2022/01/08 12:53:21;;;;;;;2.22;1.17;;;23.70;50.70;;;;;;5055640;28;20315;-51
2022/01/08 12:56:14;;;;;;;1.55;1.10;;;23.60;50.70;;;;;;5055024;28;20348;-47
2022/01/08 12:58:49;;;;;;;1.23;1.10;;;23.60;50.80;;;;;;5064037;28;20299;-42
2022/01/08 13:01:23;;;;;;;1.13;0.90;;;23.60;50.70;;;;;;5058667;28;20273;-38
2022/01/08 13:03:57;;;;;;;2.13;1.40;;;23.50;50.70;;;;;;5061346;28;20257;-38
2022/01/08 13:06:33;;;;;;;2.13;1.15;;;23.50;50.70;;;;;;5063252;28;20214;-51
2022/01/08 13:09:04;;;;;;;2.55;1.15;;;23.50;50.70;;;;;;5050735;28;20195;-44
2022/01/08 13:11:36;;;;;;;2.38;1.30;;;23.50;50.70;;;;;;5052506;28;20369;-46
2022/01/08 13:14:07;;;;;;;2.88;1.17;;;23.50;50.70;;;;;;5054374;28;20310;-42
2022/01/08 13:16:41;;;;;;;3.13;1.40;;;23.50;50.70;;;;;;5062441;28;20285;-49
2022/01/08 13:19:16;;;;;;;2.65;1.27;;;23.40;50.60;;;;;;5057600;28;20261;-44
2022/01/08 13:21:48;;;;;;;1.92;0.82;;;23.40;50.60;;;;;;5052581;28;20651;-42
2022/01/08 13:24:19;;;;;;;2.58;1.38;;;23.40;50.50;;;;;;5054367;28;20278;-43
2022/01/08 13:26:54;;;;;;;2.17;1.10;;;23.40;50.60;;;;;;5052857;28;20274;-46
2022/01/08 13:29:27;;;;;;;1.13;0.90;;;23.40;50.60;;;;;;5065760;28;20286;-51
2022/01/08 13:31:59;;;;;;;1.67;1.00;;;23.40;50.50;;;;;;5051783;28;20188;-39
2022/01/08 13:34:35;;;;;;;1.92;0.98;;;23.40;50.60;;;;;;5067222;28;20309;-39
2022/01/08 13:37:08;;;;;;;1.70;1.17;;;23.30;50.50;;;;;;5066970;28;20286;-49
2022/01/08 13:39:41;;;;;;;1.88;0.90;;;23.30;50.60;;;;;;5053754;28;20246;-39
2022/01/08 13:42:26;;;;;;;1.98;1.10;;;23.30;50.60;;;;;;5053238;28;20222;-46